sensor_id;sensor_type;location;lat;lon;timestamp;temperature;humidity
60495;DHT22;46342;49.046;11.920;2022-12-10T00:00:18;3.80;69.10
60495;DHT22;46342;49.046;11.920;2022-12-10T00:02:44;3.80;69.10
60495;DHT22;46342;49.046;11.920;2022-12-10T00:05:09;3.80;69.10
60495;DHT22;46342;49.046;11.920;2022-12-10T00:07:35;3.80;69.20
60495;DHT22;46342;49.046;11.920;2022-12-10T00:10:00;3.80;69.30
60495;DHT22;46342;49.046;11.920;2022-12-10T00:12:26;3.90;69.50
60495;DHT22;46342;49.046;11.920;2022-12-10T00:14:52;3.80;69.30
60495;DHT22;46342;49.046;11.920;2022-12-10T00:17:17;3.80;70.30
60495;DHT22;46342;49.046;11.920;2022-12-10T00:19:43;3.80;69.40
60495;DHT22;46342;49.046;11.920;2022-12-10T00:22:08;3.80;69.50
60495;DHT22;46342;49.046;11.920;2022-12-10T00:24:34;3.80;69.50
60495;DHT22;46342;49.046;11.920;2022-12-10T00:27:00;3.80;69.40
60495;DHT22;46342;49.046;11.920;2022-12-10T00:29:25;3.80;69.40
60495;DHT22;46342;49.046;11.920;2022-12-10T00:31:51;3.80;69.30
60495;DHT22;46342;49.046;11.920;2022-12-10T00:34:16;3.80;69.30
60495;DHT22;46342;49.046;11.920;2022-12-10T00:36:47;3.80;69.40
60495;DHT22;46342;49.046;11.920;2022-12-10T00:39:16;3.90;69.40
60495;DHT22;46342;49.046;11.920;2022-12-10T00:41:42;3.80;69.40
60495;DHT22;46342;49.046;11.920;2022-12-10T00:44:08;3.90;69.60
60495;DHT22;46342;49.046;11.920;2022-12-10T00:46:34;3.80;69.50
60495;DHT22;46342;49.046;11.920;2022-12-10T00:49:00;3.80;69.50
60495;DHT22;46342;49.046;11.920;2022-12-10T00:51:27;3.80;69.40
60495;DHT22;46342;49.046;11.920;2022-12-10T00:53:54;3.80;69.30
60495;DHT22;46342;49.046;11.920;2022-12-10T00:56:22;3.80;69.30
60495;DHT22;46342;49.046;11.920;2022-12-10T00:58:49;3.80;69.20
60495;DHT22;46342;49.046;11.920;2022-12-10T01:01:30;3.80;69.20
60495;DHT22;46342;49.046;11.920;2022-12-10T01:03:59;3.80;69.30
60495;DHT22;46342;49.046;11.920;2022-12-10T01:06:26;3.80;69.30
60495;DHT22;46342;49.046;11.920;2022-12-10T01:08:53;3.90;69.30
60495;DHT22;46342;49.046;11.920;2022-12-10T01:11:21;3.80;69.30
60495;DHT22;46342;49.046;11.920;2022-12-10T01:13:48;3.80;69.30
60495;DHT22;46342;49.046;11.920;2022-12-10T01:16:16;3.80;69.30
60495;DHT22;46342;49.046;11.920;2022-12-10T01:18:42;3.80;69.40
60495;DHT22;46342;49.046;11.920;2022-12-10T01:21:13;3.80;69.40
60495;DHT22;46342;49.046;11.920;2022-12-10T01:23:41;3.80;69.50
60495;DHT22;46342;49.046;11.920;2022-12-10T01:26:10;3.80;69.60
60495;DHT22;46342;49.046;11.920;2022-12-10T01:28:37;3.80;69.50
60495;DHT22;46342;49.046;11.920;2022-12-10T01:31:12;3.80;69.50
60495;DHT22;46342;49.046;11.920;2022-12-10T01:33:38;3.80;69.50
60495;DHT22;46342;49.046;11.920;2022-12-10T01:36:07;3.80;69.50
60495;DHT22;46342;49.046;11.920;2022-12-10T01:38:33;3.80;69.50
60495;DHT22;46342;49.046;11.920;2022-12-10T01:41:00;3.80;69.60
60495;DHT22;46342;49.046;11.920;2022-12-10T01:43:26;3.80;70.40
60495;DHT22;46342;49.046;11.920;2022-12-10T01:45:52;3.80;69.50
60495;DHT22;46342;49.046;11.920;2022-12-10T01:48:18;3.80;69.60
60495;DHT22;46342;49.046;11.920;2022-12-10T01:50:44;3.90;69.60
60495;DHT22;46342;49.046;11.920;2022-12-10T01:53:11;3.80;69.50
60495;DHT22;46342;49.046;11.920;2022-12-10T01:55:48;3.90;69.60
60495;DHT22;46342;49.046;11.920;2022-12-10T01:58:15;3.80;69.40
60495;DHT22;46342;49.046;11.920;2022-12-10T02:00:49;3.80;69.50
60495;DHT22;46342;49.046;11.920;2022-12-10T02:03:24;3.80;69.50
60495;DHT22;46342;49.046;11.920;2022-12-10T02:06:09;3.80;69.60
60495;DHT22;46342;49.046;11.920;2022-12-10T02:08:50;3.80;69.50
60495;DHT22;46342;49.046;11.920;2022-12-10T02:11:31;3.80;69.50
60495;DHT22;46342;49.046;11.920;2022-12-10T02:14:17;3.80;69.50
60495;DHT22;46342;49.046;11.920;2022-12-10T02:17:02;3.80;69.60
60495;DHT22;46342;49.046;11.920;2022-12-10T02:22:05;3.80;69.70
60495;DHT22;46342;49.046;11.920;2022-12-10T02:24:34;3.90;69.80
60495;DHT22;46342;49.046;11.920;2022-12-10T02:27:17;3.80;69.80
60495;DHT22;46342;49.046;11.920;2022-12-10T02:29:46;3.80;69.70
60495;DHT22;46342;49.046;11.920;2022-12-10T02:32:18;3.80;69.80
60495;DHT22;46342;49.046;11.920;2022-12-10T02:34:50;3.80;69.80
60495;DHT22;46342;49.046;11.920;2022-12-10T02:37:24;3.80;69.70
60495;DHT22;46342;49.046;11.920;2022-12-10T02:39:54;3.80;69.70
60495;DHT22;46342;49.046;11.920;2022-12-10T02:42:21;3.80;69.70
60495;DHT22;46342;49.046;11.920;2022-12-10T02:44:48;3.90;69.80
60495;DHT22;46342;49.046;11.920;2022-12-10T02:47:16;3.90;69.60
60495;DHT22;46342;49.046;11.920;2022-12-10T02:49:47;3.90;69.60
60495;DHT22;46342;49.046;11.920;2022-12-10T02:52:14;3.80;69.50
60495;DHT22;46342;49.046;11.920;2022-12-10T03:00:04;3.90;69.70
60495;DHT22;46342;49.046;11.920;2022-12-10T03:05:18;3.90;69.60
60495;DHT22;46342;49.046;11.920;2022-12-10T03:07:57;3.90;69.50
60495;DHT22;46342;49.046;11.920;2022-12-10T03:13:03;3.80;69.40
60495;DHT22;46342;49.046;11.920;2022-12-10T03:15:34;3.80;69.40
60495;DHT22;46342;49.046;11.920;2022-12-10T03:18:05;3.80;69.50
60495;DHT22;46342;49.046;11.920;2022-12-10T03:20:37;3.80;69.50
60495;DHT22;46342;49.046;11.920;2022-12-10T03:23:05;3.80;69.50
60495;DHT22;46342;49.046;11.920;2022-12-10T03:25:33;3.80;69.60
60495;DHT22;46342;49.046;11.920;2022-12-10T03:28:01;3.80;69.70
60495;DHT22;46342;49.046;11.920;2022-12-10T03:30:26;3.80;69.70
60495;DHT22;46342;49.046;11.920;2022-12-10T03:32:54;3.80;69.70
60495;DHT22;46342;49.046;11.920;2022-12-10T03:35:21;3.80;69.70
60495;DHT22;46342;49.046;11.920;2022-12-10T03:37:48;3.80;69.70
60495;DHT22;46342;49.046;11.920;2022-12-10T03:40:16;3.80;69.60
60495;DHT22;46342;49.046;11.920;2022-12-10T03:42:43;3.80;69.60
60495;DHT22;46342;49.046;11.920;2022-12-10T03:45:09;3.80;69.40
60495;DHT22;46342;49.046;11.920;2022-12-10T03:47:35;3.80;69.30
60495;DHT22;46342;49.046;11.920;2022-12-10T03:50:00;3.80;69.30
60495;DHT22;46342;49.046;11.920;2022-12-10T03:52:26;3.80;69.50
60495;DHT22;46342;49.046;11.920;2022-12-10T03:54:51;3.80;69.60
60495;DHT22;46342;49.046;11.920;2022-12-10T03:57:17;3.80;69.70
60495;DHT22;46342;49.046;11.920;2022-12-10T03:59:43;3.80;69.70
60495;DHT22;46342;49.046;11.920;2022-12-10T04:02:08;3.80;69.70
60495;DHT22;46342;49.046;11.920;2022-12-10T04:04:36;3.80;69.70
60495;DHT22;46342;49.046;11.920;2022-12-10T04:07:01;3.80;69.70
60495;DHT22;46342;49.046;11.920;2022-12-10T04:09:27;3.80;69.70
60495;DHT22;46342;49.046;11.920;2022-12-10T04:11:59;3.80;69.70
60495;DHT22;46342;49.046;11.920;2022-12-10T04:14:26;3.80;69.60
60495;DHT22;46342;49.046;11.920;2022-12-10T04:17:11;3.80;69.70
60495;DHT22;46342;49.046;11.920;2022-12-10T04:19:36;3.80;69.60
60495;DHT22;46342;49.046;11.920;2022-12-10T04:22:02;3.80;69.70
60495;DHT22;46342;49.046;11.920;2022-12-10T04:24:46;3.80;69.70
60495;DHT22;46342;49.046;11.920;2022-12-10T04:27:33;3.80;69.50
60495;DHT22;46342;49.046;11.920;2022-12-10T04:30:00;3.80;69.60
60495;DHT22;46342;49.046;11.920;2022-12-10T04:32:27;3.70;69.60
60495;DHT22;46342;49.046;11.920;2022-12-10T04:34:54;3.80;69.80
60495;DHT22;46342;49.046;11.920;2022-12-10T04:37:20;3.80;69.80
60495;DHT22;46342;49.046;11.920;2022-12-10T04:39:46;3.80;69.80
60495;DHT22;46342;49.046;11.920;2022-12-10T04:42:12;3.80;69.70
60495;DHT22;46342;49.046;11.920;2022-12-10T04:44:38;3.80;69.60
60495;DHT22;46342;49.046;11.920;2022-12-10T04:47:05;3.80;69.70
60495;DHT22;46342;49.046;11.920;2022-12-10T04:49:31;3.80;69.70
60495;DHT22;46342;49.046;11.920;2022-12-10T04:51:57;3.80;69.70
60495;DHT22;46342;49.046;11.920;2022-12-10T04:54:23;3.80;69.80
60495;DHT22;46342;49.046;11.920;2022-12-10T04:56:48;3.80;69.80
60495;DHT22;46342;49.046;11.920;2022-12-10T04:59:15;3.80;69.90
60495;DHT22;46342;49.046;11.920;2022-12-10T05:01:40;3.80;70.00
60495;DHT22;46342;49.046;11.920;2022-12-10T05:04:08;3.80;70.00
60495;DHT22;46342;49.046;11.920;2022-12-10T05:06:34;3.80;70.00
60495;DHT22;46342;49.046;11.920;2022-12-10T05:09:01;3.80;70.00
60495;DHT22;46342;49.046;11.920;2022-12-10T05:11:29;3.80;69.90
60495;DHT22;46342;49.046;11.920;2022-12-10T05:13:56;3.80;69.80
60495;DHT22;46342;49.046;11.920;2022-12-10T05:16:23;3.80;69.80
60495;DHT22;46342;49.046;11.920;2022-12-10T05:18:50;3.80;69.70
60495;DHT22;46342;49.046;11.920;2022-12-10T05:21:17;3.80;69.80
60495;DHT22;46342;49.046;11.920;2022-12-10T05:23:46;3.80;69.80
60495;DHT22;46342;49.046;11.920;2022-12-10T05:28:43;3.80;69.80
60495;DHT22;46342;49.046;11.920;2022-12-10T05:31:17;3.80;69.80
60495;DHT22;46342;49.046;11.920;2022-12-10T05:33:43;3.80;69.80
60495;DHT22;46342;49.046;11.920;2022-12-10T05:36:11;3.80;69.90
60495;DHT22;46342;49.046;11.920;2022-12-10T05:38:38;3.80;70.00
60495;DHT22;46342;49.046;11.920;2022-12-10T05:41:13;3.80;70.00
60495;DHT22;46342;49.046;11.920;2022-12-10T05:43:39;3.80;70.00
60495;DHT22;46342;49.046;11.920;2022-12-10T05:46:09;3.80;69.90
60495;DHT22;46342;49.046;11.920;2022-12-10T05:48:35;3.80;69.90
60495;DHT22;46342;49.046;11.920;2022-12-10T05:51:05;3.80;69.90
60495;DHT22;46342;49.046;11.920;2022-12-10T05:53:31;3.80;69.90
60495;DHT22;46342;49.046;11.920;2022-12-10T05:56:06;3.80;69.80
60495;DHT22;46342;49.046;11.920;2022-12-10T05:58:32;3.80;69.80
60495;DHT22;46342;49.046;11.920;2022-12-10T06:00:58;3.80;69.70
60495;DHT22;46342;49.046;11.920;2022-12-10T06:03:25;3.80;69.70
60495;DHT22;46342;49.046;11.920;2022-12-10T06:05:51;3.80;69.70
60495;DHT22;46342;49.046;11.920;2022-12-10T06:08:17;3.80;69.70
60495;DHT22;46342;49.046;11.920;2022-12-10T06:10:42;3.80;69.70
60495;DHT22;46342;49.046;11.920;2022-12-10T06:13:08;3.80;69.90
60495;DHT22;46342;49.046;11.920;2022-12-10T06:15:33;3.80;69.90
60495;DHT22;46342;49.046;11.920;2022-12-10T06:17:59;3.80;70.00
60495;DHT22;46342;49.046;11.920;2022-12-10T06:20:26;3.80;70.00
60495;DHT22;46342;49.046;11.920;2022-12-10T06:22:52;3.80;70.00
60495;DHT22;46342;49.046;11.920;2022-12-10T06:25:18;3.80;69.90
60495;DHT22;46342;49.046;11.920;2022-12-10T06:27:43;3.80;69.90
60495;DHT22;46342;49.046;11.920;2022-12-10T06:30:10;3.80;69.80
60495;DHT22;46342;49.046;11.920;2022-12-10T06:32:36;3.80;69.80
60495;DHT22;46342;49.046;11.920;2022-12-10T06:35:02;3.80;69.80
60495;DHT22;46342;49.046;11.920;2022-12-10T06:37:28;3.80;69.90
60495;DHT22;46342;49.046;11.920;2022-12-10T06:39:53;3.80;70.00
60495;DHT22;46342;49.046;11.920;2022-12-10T06:42:20;3.80;70.00
60495;DHT22;46342;49.046;11.920;2022-12-10T06:44:46;3.80;70.00
60495;DHT22;46342;49.046;11.920;2022-12-10T06:47:12;3.80;70.00
60495;DHT22;46342;49.046;11.920;2022-12-10T06:49:38;3.80;70.00
60495;DHT22;46342;49.046;11.920;2022-12-10T06:52:04;3.80;70.00
60495;DHT22;46342;49.046;11.920;2022-12-10T06:54:30;3.90;70.10
60495;DHT22;46342;49.046;11.920;2022-12-10T06:56:56;3.90;70.10
60495;DHT22;46342;49.046;11.920;2022-12-10T06:59:21;3.90;70.10
60495;DHT22;46342;49.046;11.920;2022-12-10T07:01:47;3.90;70.10
60495;DHT22;46342;49.046;11.920;2022-12-10T07:04:13;3.90;69.90
60495;DHT22;46342;49.046;11.920;2022-12-10T07:06:39;3.90;69.80
60495;DHT22;46342;49.046;11.920;2022-12-10T07:09:04;3.90;69.70
60495;DHT22;46342;49.046;11.920;2022-12-10T07:11:30;3.90;69.70
60495;DHT22;46342;49.046;11.920;2022-12-10T07:13:56;3.90;69.70
60495;DHT22;46342;49.046;11.920;2022-12-10T07:16:24;3.80;70.50
60495;DHT22;46342;49.046;11.920;2022-12-10T07:18:51;3.80;69.70
60495;DHT22;46342;49.046;11.920;2022-12-10T07:23:53;3.80;69.70
60495;DHT22;46342;49.046;11.920;2022-12-10T07:26:20;3.80;69.70
60495;DHT22;46342;49.046;11.920;2022-12-10T07:28:46;3.80;69.70
60495;DHT22;46342;49.046;11.920;2022-12-10T07:31:12;3.80;69.70
60495;DHT22;46342;49.046;11.920;2022-12-10T07:33:38;3.80;69.70
60495;DHT22;46342;49.046;11.920;2022-12-10T07:36:09;3.80;69.80
60495;DHT22;46342;49.046;11.920;2022-12-10T07:38:35;3.80;69.80
60495;DHT22;46342;49.046;11.920;2022-12-10T07:41:09;3.80;69.90
60495;DHT22;46342;49.046;11.920;2022-12-10T07:43:37;3.80;69.70
60495;DHT22;46342;49.046;11.920;2022-12-10T07:46:14;3.80;69.70
60495;DHT22;46342;49.046;11.920;2022-12-10T07:48:41;3.80;69.80
60495;DHT22;46342;49.046;11.920;2022-12-10T07:51:07;3.80;69.90
60495;DHT22;46342;49.046;11.920;2022-12-10T07:53:33;3.80;69.90
60495;DHT22;46342;49.046;11.920;2022-12-10T07:55:59;3.90;70.10
60495;DHT22;46342;49.046;11.920;2022-12-10T07:58:25;3.80;69.90
60495;DHT22;46342;49.046;11.920;2022-12-10T08:00:51;3.90;70.10
60495;DHT22;46342;49.046;11.920;2022-12-10T08:03:16;3.80;70.00
60495;DHT22;46342;49.046;11.920;2022-12-10T08:05:42;3.80;70.00
60495;DHT22;46342;49.046;11.920;2022-12-10T08:08:08;3.80;70.00
60495;DHT22;46342;49.046;11.920;2022-12-10T08:10:35;3.80;70.00
60495;DHT22;46342;49.046;11.920;2022-12-10T08:13:00;3.90;70.10
60495;DHT22;46342;49.046;11.920;2022-12-10T08:15:26;3.90;70.10
60495;DHT22;46342;49.046;11.920;2022-12-10T08:17:53;3.90;70.10
60495;DHT22;46342;49.046;11.920;2022-12-10T08:20:19;3.90;70.90
60495;DHT22;46342;49.046;11.920;2022-12-10T08:22:45;3.90;70.90
60495;DHT22;46342;49.046;11.920;2022-12-10T08:25:10;3.90;70.10
60495;DHT22;46342;49.046;11.920;2022-12-10T08:27:36;3.90;70.10
60495;DHT22;46342;49.046;11.920;2022-12-10T08:30:02;3.90;70.10
60495;DHT22;46342;49.046;11.920;2022-12-10T08:32:27;3.90;70.10
60495;DHT22;46342;49.046;11.920;2022-12-10T08:34:53;3.90;70.10
60495;DHT22;46342;49.046;11.920;2022-12-10T08:37:18;3.90;70.10
60495;DHT22;46342;49.046;11.920;2022-12-10T08:39:44;3.90;70.10
60495;DHT22;46342;49.046;11.920;2022-12-10T08:42:09;4.00;70.20
60495;DHT22;46342;49.046;11.920;2022-12-10T08:44:35;4.00;70.20
60495;DHT22;46342;49.046;11.920;2022-12-10T08:47:01;4.00;70.20
60495;DHT22;46342;49.046;11.920;2022-12-10T08:49:26;4.00;70.20
60495;DHT22;46342;49.046;11.920;2022-12-10T08:51:52;4.10;70.30
60495;DHT22;46342;49.046;11.920;2022-12-10T08:54:17;4.00;70.00
60495;DHT22;46342;49.046;11.920;2022-12-10T08:56:43;4.00;70.00
60495;DHT22;46342;49.046;11.920;2022-12-10T08:59:09;4.00;70.00
60495;DHT22;46342;49.046;11.920;2022-12-10T09:01:35;4.10;70.10
60495;DHT22;46342;49.046;11.920;2022-12-10T09:04:00;4.10;70.20
60495;DHT22;46342;49.046;11.920;2022-12-10T09:06:27;4.10;71.10
60495;DHT22;46342;49.046;11.920;2022-12-10T09:08:53;4.10;70.20
60495;DHT22;46342;49.046;11.920;2022-12-10T09:11:31;4.10;70.10
60495;DHT22;46342;49.046;11.920;2022-12-10T09:13:57;4.10;69.90
60495;DHT22;46342;49.046;11.920;2022-12-10T09:16:31;4.10;69.80
60495;DHT22;46342;49.046;11.920;2022-12-10T09:18:57;4.10;69.70
60495;DHT22;46342;49.046;11.920;2022-12-10T09:21:23;4.10;69.60
60495;DHT22;46342;49.046;11.920;2022-12-10T09:23:49;4.10;69.70
60495;DHT22;46342;49.046;11.920;2022-12-10T09:26:15;4.10;69.80
60495;DHT22;46342;49.046;11.920;2022-12-10T09:28:42;4.10;69.90
60495;DHT22;46342;49.046;11.920;2022-12-10T09:31:08;4.10;70.00
60495;DHT22;46342;49.046;11.920;2022-12-10T09:33:34;4.10;70.10
60495;DHT22;46342;49.046;11.920;2022-12-10T09:35:59;4.10;70.10
60495;DHT22;46342;49.046;11.920;2022-12-10T09:38:27;4.10;70.10
60495;DHT22;46342;49.046;11.920;2022-12-10T09:41:04;4.10;70.10
60495;DHT22;46342;49.046;11.920;2022-12-10T09:51:37;4.20;69.80
60495;DHT22;46342;49.046;11.920;2022-12-10T09:54:11;4.20;70.10
60495;DHT22;46342;49.046;11.920;2022-12-10T09:56:39;4.20;70.10
60495;DHT22;46342;49.046;11.920;2022-12-10T09:59:25;4.20;70.10
60495;DHT22;46342;49.046;11.920;2022-12-10T10:04:43;4.30;69.70
60495;DHT22;46342;49.046;11.920;2022-12-10T10:07:20;4.30;70.10
60495;DHT22;46342;49.046;11.920;2022-12-10T10:09:46;4.30;70.20
60495;DHT22;46342;49.046;11.920;2022-12-10T10:12:15;4.30;70.20
60495;DHT22;46342;49.046;11.920;2022-12-10T10:14:43;4.30;70.10
60495;DHT22;46342;49.046;11.920;2022-12-10T10:20:14;4.40;70.20
60495;DHT22;46342;49.046;11.920;2022-12-10T10:22:40;4.40;70.30
60495;DHT22;46342;49.046;11.920;2022-12-10T10:25:13;4.40;70.30
60495;DHT22;46342;49.046;11.920;2022-12-10T10:27:40;4.50;70.20
60495;DHT22;46342;49.046;11.920;2022-12-10T10:30:06;4.50;70.40
60495;DHT22;46342;49.046;11.920;2022-12-10T10:35:01;4.50;70.30
60495;DHT22;46342;49.046;11.920;2022-12-10T10:39:59;4.60;71.20
60495;DHT22;46342;49.046;11.920;2022-12-10T10:42:33;4.60;71.20
60495;DHT22;46342;49.046;11.920;2022-12-10T10:45:02;4.60;70.20
60495;DHT22;46342;49.046;11.920;2022-12-10T10:47:30;4.70;70.10
60495;DHT22;46342;49.046;11.920;2022-12-10T10:49:57;4.80;70.00
60495;DHT22;46342;49.046;11.920;2022-12-10T10:52:35;4.70;70.00
60495;DHT22;46342;49.046;11.920;2022-12-10T10:55:00;4.70;69.90
60495;DHT22;46342;49.046;11.920;2022-12-10T10:57:33;4.80;70.10
60495;DHT22;46342;49.046;11.920;2022-12-10T11:00:20;4.80;70.20
60495;DHT22;46342;49.046;11.920;2022-12-10T11:02:47;4.80;69.60
60495;DHT22;46342;49.046;11.920;2022-12-10T11:05:21;4.80;70.00
60495;DHT22;46342;49.046;11.920;2022-12-10T11:08:05;4.80;69.50
60495;DHT22;46342;49.046;11.920;2022-12-10T11:10:33;4.80;69.60
60495;DHT22;46342;49.046;11.920;2022-12-10T11:13:18;4.80;69.80
60495;DHT22;46342;49.046;11.920;2022-12-10T11:15:44;4.90;70.00
60495;DHT22;46342;49.046;11.920;2022-12-10T11:18:38;4.90;70.10
60495;DHT22;46342;49.046;11.920;2022-12-10T11:21:15;4.90;69.80
60495;DHT22;46342;49.046;11.920;2022-12-10T11:23:44;4.90;70.00
60495;DHT22;46342;49.046;11.920;2022-12-10T11:32:03;5.00;69.10
60495;DHT22;46342;49.046;11.920;2022-12-10T11:34:52;5.00;69.20
60495;DHT22;46342;49.046;11.920;2022-12-10T11:46:07;5.20;69.50
60495;DHT22;46342;49.046;11.920;2022-12-10T11:48:55;5.20;69.80
60495;DHT22;46342;49.046;11.920;2022-12-10T11:51:40;5.20;69.80
60495;DHT22;46342;49.046;11.920;2022-12-10T11:59:53;5.30;69.50
60495;DHT22;46342;49.046;11.920;2022-12-10T12:02:34;5.30;69.30
60495;DHT22;46342;49.046;11.920;2022-12-10T12:05:09;5.30;69.40
60495;DHT22;46342;49.046;11.920;2022-12-10T12:07:51;5.40;69.40
60495;DHT22;46342;49.046;11.920;2022-12-10T12:13:33;5.40;69.20
60495;DHT22;46342;49.046;11.920;2022-12-10T12:16:07;5.40;69.00
60495;DHT22;46342;49.046;11.920;2022-12-10T12:18:54;5.40;69.20
60495;DHT22;46342;49.046;11.920;2022-12-10T12:21:21;5.50;69.00
60495;DHT22;46342;49.046;11.920;2022-12-10T12:24:07;5.50;69.60
60495;DHT22;46342;49.046;11.920;2022-12-10T12:26:45;5.50;69.10
60495;DHT22;46342;49.046;11.920;2022-12-10T12:29:20;5.50;68.90
60495;DHT22;46342;49.046;11.920;2022-12-10T12:32:10;5.50;69.40
60495;DHT22;46342;49.046;11.920;2022-12-10T12:37:16;5.60;69.30
60495;DHT22;46342;49.046;11.920;2022-12-10T12:44:59;5.60;68.70
60495;DHT22;46342;49.046;11.920;2022-12-10T12:48:01;5.60;68.50
60495;DHT22;46342;49.046;11.920;2022-12-10T12:53:24;5.60;68.50
60495;DHT22;46342;49.046;11.920;2022-12-10T12:58:48;5.60;68.70
60495;DHT22;46342;49.046;11.920;2022-12-10T13:03:53;5.60;68.30
60495;DHT22;46342;49.046;11.920;2022-12-10T13:06:30;5.60;68.90
60495;DHT22;46342;49.046;11.920;2022-12-10T13:24:44;5.70;68.10
60495;DHT22;46342;49.046;11.920;2022-12-10T13:32:20;5.70;67.30
60495;DHT22;46342;49.046;11.920;2022-12-10T13:34:47;5.60;67.60
60495;DHT22;46342;49.046;11.920;2022-12-10T13:37:32;5.60;67.80
60495;DHT22;46342;49.046;11.920;2022-12-10T13:42:36;5.60;67.10
60495;DHT22;46342;49.046;11.920;2022-12-10T13:47:50;5.50;67.60
60495;DHT22;46342;49.046;11.920;2022-12-10T13:53:18;5.50;67.50
60495;DHT22;46342;49.046;11.920;2022-12-10T13:56:03;5.50;66.90
60495;DHT22;46342;49.046;11.920;2022-12-10T14:06:32;5.40;66.50
60495;DHT22;46342;49.046;11.920;2022-12-10T14:09:13;5.40;67.00
60495;DHT22;46342;49.046;11.920;2022-12-10T14:14:40;5.30;66.40
60495;DHT22;46342;49.046;11.920;2022-12-10T14:17:32;5.30;66.90
60495;DHT22;46342;49.046;11.920;2022-12-10T14:19:59;5.30;66.80
60495;DHT22;46342;49.046;11.920;2022-12-10T14:22:33;5.30;67.60
60495;DHT22;46342;49.046;11.920;2022-12-10T14:25:01;5.30;67.30
60495;DHT22;46342;49.046;11.920;2022-12-10T14:27:28;5.30;67.50
60495;DHT22;46342;49.046;11.920;2022-12-10T14:30:04;5.30;67.70
60495;DHT22;46342;49.046;11.920;2022-12-10T14:32:37;5.30;67.30
60495;DHT22;46342;49.046;11.920;2022-12-10T14:35:05;5.30;67.50
60495;DHT22;46342;49.046;11.920;2022-12-10T14:37:35;5.20;67.60
60495;DHT22;46342;49.046;11.920;2022-12-10T14:40:04;5.20;67.60
60495;DHT22;46342;49.046;11.920;2022-12-10T14:42:31;5.20;67.60
60495;DHT22;46342;49.046;11.920;2022-12-10T14:44:59;5.20;67.80
60495;DHT22;46342;49.046;11.920;2022-12-10T14:47:26;5.20;67.80
60495;DHT22;46342;49.046;11.920;2022-12-10T14:49:54;5.20;67.80
60495;DHT22;46342;49.046;11.920;2022-12-10T14:52:30;5.20;67.60
60495;DHT22;46342;49.046;11.920;2022-12-10T14:54:58;5.20;67.30
60495;DHT22;46342;49.046;11.920;2022-12-10T14:57:29;5.20;67.50
60495;DHT22;46342;49.046;11.920;2022-12-10T15:00:05;5.20;67.30
60495;DHT22;46342;49.046;11.920;2022-12-10T15:02:40;5.20;67.30
60495;DHT22;46342;49.046;11.920;2022-12-10T15:05:16;5.20;67.10
60495;DHT22;46342;49.046;11.920;2022-12-10T15:07:43;5.10;67.00
60495;DHT22;46342;49.046;11.920;2022-12-10T15:10:18;5.10;67.20
60495;DHT22;46342;49.046;11.920;2022-12-10T15:12:48;5.10;67.00
60495;DHT22;46342;49.046;11.920;2022-12-10T15:18:10;5.10;67.30
60495;DHT22;46342;49.046;11.920;2022-12-10T15:20:37;5.10;66.80
60495;DHT22;46342;49.046;11.920;2022-12-10T15:23:12;5.00;67.20
60495;DHT22;46342;49.046;11.920;2022-12-10T15:25:58;5.00;67.00
60495;DHT22;46342;49.046;11.920;2022-12-10T15:28:29;5.00;67.20
60495;DHT22;46342;49.046;11.920;2022-12-10T15:33:55;5.00;67.40
60495;DHT22;46342;49.046;11.920;2022-12-10T15:38:52;4.90;67.30
60495;DHT22;46342;49.046;11.920;2022-12-10T15:44:05;4.90;67.20
60495;DHT22;46342;49.046;11.920;2022-12-10T15:46:31;4.90;67.30
60495;DHT22;46342;49.046;11.920;2022-12-10T15:48:57;4.90;67.70
60495;DHT22;46342;49.046;11.920;2022-12-10T15:51:24;4.90;67.80
60495;DHT22;46342;49.046;11.920;2022-12-10T15:53:50;4.80;67.70
60495;DHT22;46342;49.046;11.920;2022-12-10T15:56:15;4.90;67.80
60495;DHT22;46342;49.046;11.920;2022-12-10T15:58:41;4.90;67.80
60495;DHT22;46342;49.046;11.920;2022-12-10T16:01:12;4.80;67.70
60495;DHT22;46342;49.046;11.920;2022-12-10T16:03:38;4.80;67.70
60495;DHT22;46342;49.046;11.920;2022-12-10T16:06:06;4.80;67.70
60495;DHT22;46342;49.046;11.920;2022-12-10T16:08:32;4.80;67.70
60495;DHT22;46342;49.046;11.920;2022-12-10T16:11:02;4.80;67.80
60495;DHT22;46342;49.046;11.920;2022-12-10T16:13:31;4.80;67.90
60495;DHT22;46342;49.046;11.920;2022-12-10T16:16:07;4.80;67.90
60495;DHT22;46342;49.046;11.920;2022-12-10T16:18:33;4.80;67.90
60495;DHT22;46342;49.046;11.920;2022-12-10T16:21:01;4.80;68.10
60495;DHT22;46342;49.046;11.920;2022-12-10T16:23:27;4.80;67.70
60495;DHT22;46342;49.046;11.920;2022-12-10T16:25:52;4.80;67.90
60495;DHT22;46342;49.046;11.920;2022-12-10T16:28:20;4.70;67.80
60495;DHT22;46342;49.046;11.920;2022-12-10T16:30:55;4.70;67.80
60495;DHT22;46342;49.046;11.920;2022-12-10T16:33:23;4.70;67.80
60495;DHT22;46342;49.046;11.920;2022-12-10T16:35:50;4.70;67.90
60495;DHT22;46342;49.046;11.920;2022-12-10T16:38:17;4.70;67.90
60495;DHT22;46342;49.046;11.920;2022-12-10T16:40:44;4.70;67.90
60495;DHT22;46342;49.046;11.920;2022-12-10T16:43:15;4.60;67.90
60495;DHT22;46342;49.046;11.920;2022-12-10T16:45:42;4.60;67.90
60495;DHT22;46342;49.046;11.920;2022-12-10T16:48:10;4.60;68.00
60495;DHT22;46342;49.046;11.920;2022-12-10T16:50:36;4.60;68.10
60495;DHT22;46342;49.046;11.920;2022-12-10T16:53:06;4.60;68.10
60495;DHT22;46342;49.046;11.920;2022-12-10T16:55:37;4.60;68.10
60495;DHT22;46342;49.046;11.920;2022-12-10T16:58:02;4.50;68.10
60495;DHT22;46342;49.046;11.920;2022-12-10T17:00:28;4.50;68.10
60495;DHT22;46342;49.046;11.920;2022-12-10T17:02:53;4.50;68.10
60495;DHT22;46342;49.046;11.920;2022-12-10T17:05:34;4.50;68.10
60495;DHT22;46342;49.046;11.920;2022-12-10T17:08:01;4.50;68.10
60495;DHT22;46342;49.046;11.920;2022-12-10T17:10:26;4.50;68.20
60495;DHT22;46342;49.046;11.920;2022-12-10T17:13:13;4.50;68.20
60495;DHT22;46342;49.046;11.920;2022-12-10T17:15:41;4.50;68.10
60495;DHT22;46342;49.046;11.920;2022-12-10T17:18:12;4.40;68.00
60495;DHT22;46342;49.046;11.920;2022-12-10T17:20:38;4.40;69.00
60495;DHT22;46342;49.046;11.920;2022-12-10T17:23:04;4.40;68.20
60495;DHT22;46342;49.046;11.920;2022-12-10T17:25:29;4.40;68.30
60495;DHT22;46342;49.046;11.920;2022-12-10T17:27:55;4.40;68.20
60495;DHT22;46342;49.046;11.920;2022-12-10T17:30:21;4.40;68.20
60495;DHT22;46342;49.046;11.920;2022-12-10T17:32:47;4.40;68.20
60495;DHT22;46342;49.046;11.920;2022-12-10T17:35:12;4.40;68.20
60495;DHT22;46342;49.046;11.920;2022-12-10T17:37:38;4.40;68.30
60495;DHT22;46342;49.046;11.920;2022-12-10T17:40:16;4.30;68.20
60495;DHT22;46342;49.046;11.920;2022-12-10T17:42:41;4.40;68.30
60495;DHT22;46342;49.046;11.920;2022-12-10T17:45:09;4.30;68.20
60495;DHT22;46342;49.046;11.920;2022-12-10T17:47:36;4.30;68.30
60495;DHT22;46342;49.046;11.920;2022-12-10T17:50:03;4.30;68.40